sensor_id;sensor_type;location;lat;lon;timestamp;P1;durP1;ratioP1;P2;durP2;ratioP2
46983;SDS011;34732;52.112;9.366;2023-03-16T07:51:42;7.47;;;4.78;;
46983;SDS011;34732;52.112;9.366;2023-03-16T07:55:07;9.48;;;3.47;;
46983;SDS011;34732;52.112;9.366;2023-03-16T07:58:32;10.15;;;3.80;;
46983;SDS011;34732;52.112;9.366;2023-03-16T08:01:56;8.57;;;3.20;;
46983;SDS011;34732;52.112;9.366;2023-03-16T08:05:20;5.93;;;2.60;;
46983;SDS011;34732;52.112;9.366;2023-03-16T08:08:52;5.50;;;2.85;;
46983;SDS011;34732;52.112;9.366;2023-03-16T08:12:21;5.50;;;2.55;;
46983;SDS011;34732;52.112;9.366;2023-03-16T08:15:45;5.72;;;2.88;;
46983;SDS011;34732;52.112;9.366;2023-03-16T08:19:17;8.68;;;2.88;;
46983;SDS011;34732;52.112;9.366;2023-03-16T08:22:44;3.88;;;2.80;;
46983;SDS011;34732;52.112;9.366;2023-03-16T08:26:10;6.90;;;2.67;;
46983;SDS011;34732;52.112;9.366;2023-03-16T08:29:33;4.80;;;2.97;;
46983;SDS011;34732;52.112;9.366;2023-03-16T08:33:03;3.78;;;2.10;;
46983;SDS011;34732;52.112;9.366;2023-03-16T08:39:52;5.47;;;2.65;;
46983;SDS011;34732;52.112;9.366;2023-03-16T08:43:16;8.02;;;2.50;;
46983;SDS011;34732;52.112;9.366;2023-03-16T08:46:41;5.13;;;2.58;;
46983;SDS011;34732;52.112;9.366;2023-03-16T08:50:07;5.05;;;1.90;;
46983;SDS011;34732;52.112;9.366;2023-03-16T08:53:39;5.65;;;2.50;;
46983;SDS011;34732;52.112;9.366;2023-03-16T08:57:07;4.15;;;2.83;;
46983;SDS011;34732;52.112;9.366;2023-03-16T09:00:31;5.30;;;2.35;;
46983;SDS011;34732;52.112;9.366;2023-03-16T09:03:53;2.75;;;1.95;;
46983;SDS011;34732;52.112;9.366;2023-03-16T09:07:14;3.03;;;2.00;;
46983;SDS011;34732;52.112;9.366;2023-03-16T09:10:40;3.63;;;1.75;;
46983;SDS011;34732;52.112;9.366;2023-03-16T09:14:04;2.67;;;1.90;;
46983;SDS011;34732;52.112;9.366;2023-03-16T09:17:28;4.65;;;1.60;;
46983;SDS011;34732;52.112;9.366;2023-03-16T09:20:56;4.78;;;1.95;;
46983;SDS011;34732;52.112;9.366;2023-03-16T09:24:24;4.32;;;1.85;;
46983;SDS011;34732;52.112;9.366;2023-03-16T09:27:52;5.85;;;1.65;;
46983;SDS011;34732;52.112;9.366;2023-03-16T09:31:17;6.60;;;1.08;;
46983;SDS011;34732;52.112;9.366;2023-03-16T09:34:39;5.03;;;1.00;;
46983;SDS011;34732;52.112;9.366;2023-03-16T09:38:02;7.22;;;1.20;;
46983;SDS011;34732;52.112;9.366;2023-03-16T09:41:33;7.60;;;1.10;;
46983;SDS011;34732;52.112;9.366;2023-03-16T09:45:25;5.60;;;1.02;;
46983;SDS011;34732;52.112;9.366;2023-03-16T09:49:00;5.68;;;1.48;;
46983;SDS011;34732;52.112;9.366;2023-03-16T09:56:09;8.95;;;1.23;;
46983;SDS011;34732;52.112;9.366;2023-03-16T10:06:15;16.02;;;1.52;;
46983;SDS011;34732;52.112;9.366;2023-03-16T10:09:42;10.40;;;1.25;;
46983;SDS011;34732;52.112;9.366;2023-03-16T10:13:31;4.17;;;0.93;;
46983;SDS011;34732;52.112;9.366;2023-03-16T10:17:16;5.03;;;1.17;;
46983;SDS011;34732;52.112;9.366;2023-03-16T10:20:44;11.00;;;1.08;;
46983;SDS011;34732;52.112;9.366;2023-03-16T10:25:13;3.05;;;0.98;;
46983;SDS011;34732;52.112;9.366;2023-03-16T10:28:09;2.47;;;1.15;;
46983;SDS011;34732;52.112;9.366;2023-03-16T10:31:42;7.80;;;1.10;;
46983;SDS011;34732;52.112;9.366;2023-03-16T10:35:29;4.57;;;0.95;;
46983;SDS011;34732;52.112;9.366;2023-03-16T10:39:12;9.75;;;1.33;;
46983;SDS011;34732;52.112;9.366;2023-03-16T10:42:37;3.78;;;0.90;;
46983;SDS011;34732;52.112;9.366;2023-03-16T10:46:03;6.68;;;1.13;;
46983;SDS011;34732;52.112;9.366;2023-03-16T10:49:40;7.75;;;1.30;;
46983;SDS011;34732;52.112;9.366;2023-03-16T10:53:08;8.57;;;1.48;;
46983;SDS011;34732;52.112;9.366;2023-03-16T10:56:51;10.10;;;1.90;;
46983;SDS011;34732;52.112;9.366;2023-03-16T11:03:48;5.22;;;1.15;;
46983;SDS011;34732;52.112;9.366;2023-03-16T11:07:16;7.05;;;1.17;;
46983;SDS011;34732;52.112;9.366;2023-03-16T11:11:06;7.00;;;1.85;;
46983;SDS011;34732;52.112;9.366;2023-03-16T11:14:26;3.17;;;1.13;;
46983;SDS011;34732;52.112;9.366;2023-03-16T11:17:53;4.78;;;1.30;;
46983;SDS011;34732;52.112;9.366;2023-03-16T11:21:19;4.03;;;1.25;;
46983;SDS011;34732;52.112;9.366;2023-03-16T11:28:37;3.88;;;1.20;;
46983;SDS011;34732;52.112;9.366;2023-03-16T11:32:04;4.03;;;1.45;;
46983;SDS011;34732;52.112;9.366;2023-03-16T11:46:26;5.93;;;1.25;;
46983;SDS011;34732;52.112;9.366;2023-03-16T11:53:30;4.30;;;1.20;;
46983;SDS011;34732;52.112;9.366;2023-03-16T12:18:51;4.80;;;1.00;;
46983;SDS011;34732;52.112;9.366;2023-03-16T12:22:21;2.10;;;0.90;;
46983;SDS011;34732;52.112;9.366;2023-03-16T12:25:54;2.53;;;1.00;;
46983;SDS011;34732;52.112;9.366;2023-03-16T12:47:35;3.28;;;0.90;;
46983;SDS011;34732;52.112;9.366;2023-03-16T12:51:05;3.53;;;1.05;;
46983;SDS011;34732;52.112;9.366;2023-03-16T12:54:27;2.25;;;1.10;;
46983;SDS011;34732;52.112;9.366;2023-03-16T12:57:56;3.88;;;1.25;;
46983;SDS011;34732;52.112;9.366;2023-03-16T13:01:23;2.92;;;1.35;;
46983;SDS011;34732;52.112;9.366;2023-03-16T13:04:55;2.95;;;0.95;;
46983;SDS011;34732;52.112;9.366;2023-03-16T13:08:39;2.03;;;0.88;;
46983;SDS011;34732;52.112;9.366;2023-03-16T13:12:02;2.03;;;1.05;;
46983;SDS011;34732;52.112;9.366;2023-03-16T13:15:27;2.50;;;0.85;;
46983;SDS011;34732;52.112;9.366;2023-03-16T13:18:49;3.55;;;0.95;;
46983;SDS011;34732;52.112;9.366;2023-03-16T13:29:35;3.33;;;0.77;;
46983;SDS011;34732;52.112;9.366;2023-03-16T13:32:59;2.40;;;1.08;;
46983;SDS011;34732;52.112;9.366;2023-03-16T13:36:30;2.58;;;1.15;;
46983;SDS011;34732;52.112;9.366;2023-03-16T13:43:26;2.38;;;1.23;;
46983;SDS011;34732;52.112;9.366;2023-03-16T13:46:51;3.42;;;0.98;;
46983;SDS011;34732;52.112;9.366;2023-03-16T13:50:12;2.50;;;1.17;;
46983;SDS011;34732;52.112;9.366;2023-03-16T13:53:34;1.95;;;0.90;;
46983;SDS011;34732;52.112;9.366;2023-03-16T13:57:02;2.13;;;1.10;;
46983;SDS011;34732;52.112;9.366;2023-03-16T14:00:31;2.15;;;0.90;;
46983;SDS011;34732;52.112;9.366;2023-03-16T14:03:59;4.53;;;1.48;;
46983;SDS011;34732;52.112;9.366;2023-03-16T14:07:35;2.42;;;1.13;;
46983;SDS011;34732;52.112;9.366;2023-03-16T14:10:57;4.00;;;1.10;;
46983;SDS011;34732;52.112;9.366;2023-03-16T14:15:09;7.20;;;1.50;;
46983;SDS011;34732;52.112;9.366;2023-03-16T14:18:11;3.63;;;1.02;;
46983;SDS011;34732;52.112;9.366;2023-03-16T14:21:35;3.72;;;1.10;;
46983;SDS011;34732;52.112;9.366;2023-03-16T14:28:21;4.00;;;0.90;;
46983;SDS011;34732;52.112;9.366;2023-03-16T14:31:52;7.97;;;1.33;;
46983;SDS011;34732;52.112;9.366;2023-03-16T14:35:19;4.38;;;1.15;;
46983;SDS011;34732;52.112;9.366;2023-03-16T14:38:44;3.60;;;0.90;;
46983;SDS011;34732;52.112;9.366;2023-03-16T14:42:18;2.42;;;0.80;;
46983;SDS011;34732;52.112;9.366;2023-03-16T14:45:45;5.03;;;0.98;;
46983;SDS011;34732;52.112;9.366;2023-03-16T14:52:36;2.35;;;0.80;;
46983;SDS011;34732;52.112;9.366;2023-03-16T14:56:03;4.00;;;0.90;;
46983;SDS011;34732;52.112;9.366;2023-03-16T14:59:32;4.13;;;1.35;;
46983;SDS011;34732;52.112;9.366;2023-03-16T15:03:05;4.20;;;0.95;;
46983;SDS011;34732;52.112;9.366;2023-03-16T15:06:32;4.70;;;1.27;;
46983;SDS011;34732;52.112;9.366;2023-03-16T15:13:41;4.13;;;0.80;;
46983;SDS011;34732;52.112;9.366;2023-03-16T15:17:04;7.20;;;1.20;;
46983;SDS011;34732;52.112;9.366;2023-03-16T15:20:32;5.40;;;0.90;;
46983;SDS011;34732;52.112;9.366;2023-03-16T15:23:58;5.88;;;1.02;;
46983;SDS011;34732;52.112;9.366;2023-03-16T15:27:22;4.03;;;1.25;;
46983;SDS011;34732;52.112;9.366;2023-03-16T15:30:55;4.13;;;0.93;;
46983;SDS011;34732;52.112;9.366;2023-03-16T15:34:24;2.80;;;0.70;;
46983;SDS011;34732;52.112;9.366;2023-03-16T15:37:49;2.88;;;1.00;;
46983;SDS011;34732;52.112;9.366;2023-03-16T15:41:13;4.00;;;1.10;;
46983;SDS011;34732;52.112;9.366;2023-03-16T15:44:38;4.07;;;0.90;;
46983;SDS011;34732;52.112;9.366;2023-03-16T15:48:02;7.15;;;1.70;;
46983;SDS011;34732;52.112;9.366;2023-03-16T15:51:26;15.15;;;1.35;;
46983;SDS011;34732;52.112;9.366;2023-03-16T15:54:49;9.10;;;1.30;;
46983;SDS011;34732;52.112;9.366;2023-03-16T15:58:15;13.55;;;1.83;;
46983;SDS011;34732;52.112;9.366;2023-03-16T16:01:44;9.38;;;1.27;;
46983;SDS011;34732;52.112;9.366;2023-03-16T16:05:09;8.70;;;1.15;;
46983;SDS011;34732;52.112;9.366;2023-03-16T16:08:31;6.28;;;1.15;;
46983;SDS011;34732;52.112;9.366;2023-03-16T16:11:57;7.43;;;1.10;;
46983;SDS011;34732;52.112;9.366;2023-03-16T16:15:27;9.05;;;0.98;;
46983;SDS011;34732;52.112;9.366;2023-03-16T16:18:54;8.35;;;0.80;;
46983;SDS011;34732;52.112;9.366;2023-03-16T16:22:18;4.97;;;0.80;;
46983;SDS011;34732;52.112;9.366;2023-03-16T16:25:42;5.13;;;1.23;;
46983;SDS011;34732;52.112;9.366;2023-03-16T16:29:16;3.92;;;1.02;;
46983;SDS011;34732;52.112;9.366;2023-03-16T16:32:41;5.85;;;0.88;;
46983;SDS011;34732;52.112;9.366;2023-03-16T16:36:09;5.38;;;1.00;;
46983;SDS011;34732;52.112;9.366;2023-03-16T16:39:40;3.00;;;0.88;;
46983;SDS011;34732;52.112;9.366;2023-03-16T16:43:03;7.25;;;1.05;;
46983;SDS011;34732;52.112;9.366;2023-03-16T16:46:28;5.38;;;1.05;;
46983;SDS011;34732;52.112;9.366;2023-03-16T16:49:52;2.55;;;0.82;;
46983;SDS011;34732;52.112;9.366;2023-03-16T16:53:17;4.32;;;1.00;;
46983;SDS011;34732;52.112;9.366;2023-03-16T16:56:40;1.55;;;0.90;;
46983;SDS011;34732;52.112;9.366;2023-03-16T17:00:02;4.57;;;1.05;;
46983;SDS011;34732;52.112;9.366;2023-03-16T17:03:31;2.00;;;1.00;;
46983;SDS011;34732;52.112;9.366;2023-03-16T17:07:01;3.38;;;0.55;;
46983;SDS011;34732;52.112;9.366;2023-03-16T17:10:25;4.47;;;0.70;;
46983;SDS011;34732;52.112;9.366;2023-03-16T17:13:56;3.22;;;0.80;;
46983;SDS011;34732;52.112;9.366;2023-03-16T17:17:19;4.05;;;0.60;;
46983;SDS011;34732;52.112;9.366;2023-03-16T17:20:43;4.45;;;0.93;;
46983;SDS011;34732;52.112;9.366;2023-03-16T17:24:05;1.90;;;0.65;;
46983;SDS011;34732;52.112;9.366;2023-03-16T17:27:29;1.45;;;0.60;;
46983;SDS011;34732;52.112;9.366;2023-03-16T17:30:51;3.88;;;0.70;;
46983;SDS011;34732;52.112;9.366;2023-03-16T17:34:17;7.63;;;0.88;;
46983;SDS011;34732;52.112;9.366;2023-03-16T17:37:43;2.85;;;0.60;;
46983;SDS011;34732;52.112;9.366;2023-03-16T17:44:45;2.83;;;0.80;;
46983;SDS011;34732;52.112;9.366;2023-03-16T17:48:19;4.28;;;0.85;;
46983;SDS011;34732;52.112;9.366;2023-03-16T17:51:41;5.95;;;0.77;;
46983;SDS011;34732;52.112;9.366;2023-03-16T17:55:06;8.00;;;1.23;;
46983;SDS011;34732;52.112;9.366;2023-03-16T17:58:30;7.20;;;0.98;;
46983;SDS011;34732;52.112;9.366;2023-03-16T18:01:53;4.57;;;0.90;;
46983;SDS011;34732;52.112;9.366;2023-03-16T18:05:22;4.40;;;1.20;;
46983;SDS011;34732;52.112;9.366;2023-03-16T18:08:45;4.32;;;0.80;;
46983;SDS011;34732;52.112;9.366;2023-03-16T18:12:11;6.60;;;1.00;;
46983;SDS011;34732;52.112;9.366;2023-03-16T18:15:37;6.18;;;1.10;;
46983;SDS011;34732;52.112;9.366;2023-03-16T18:19:01;5.10;;;0.82;;
46983;SDS011;34732;52.112;9.366;2023-03-16T18:22:24;1.95;;;0.90;;
46983;SDS011;34732;52.112;9.366;2023-03-16T18:25:51;6.88;;;1.15;;
46983;SDS011;34732;52.112;9.366;2023-03-16T18:29:20;4.40;;;0.90;;
46983;SDS011;34732;52.112;9.366;2023-03-16T18:32:41;6.13;;;1.15;;
46983;SDS011;34732;52.112;9.366;2023-03-16T18:36:04;4.45;;;0.88;;
46983;SDS011;34732;52.112;9.366;2023-03-16T18:39:29;4.10;;;0.68;;
46983;SDS011;34732;52.112;9.366;2023-03-16T18:43:02;4.13;;;0.80;;
46983;SDS011;34732;52.112;9.366;2023-03-16T18:46:29;5.18;;;1.15;;
46983;SDS011;34732;52.112;9.366;2023-03-16T18:49:54;3.90;;;0.82;;
46983;SDS011;34732;52.112;9.366;2023-03-16T18:53:18;5.20;;;1.20;;
46983;SDS011;34732;52.112;9.366;2023-03-16T18:56:41;6.03;;;0.73;;
46983;SDS011;34732;52.112;9.366;2023-03-16T19:00:05;6.40;;;1.23;;
46983;SDS011;34732;52.112;9.366;2023-03-16T19:03:30;10.10;;;1.35;;
46983;SDS011;34732;52.112;9.366;2023-03-16T19:06:59;6.60;;;1.60;;
46983;SDS011;34732;52.112;9.366;2023-03-16T19:10:27;5.70;;;1.30;;
46983;SDS011;34732;52.112;9.366;2023-03-16T19:13:55;3.28;;;1.15;;
46983;SDS011;34732;52.112;9.366;2023-03-16T19:17:16;3.58;;;1.30;;
46983;SDS011;34732;52.112;9.366;2023-03-16T19:20:37;2.55;;;1.15;;
46983;SDS011;34732;52.112;9.366;2023-03-16T19:24:01;8.20;;;2.60;;
